MDT,Max TemperatureF,Mean TemperatureF,Min TemperatureF,Max Dew PointF,MeanDew PointF,Min DewpointF,Max Humidity, Mean Humidity, Min Humidity, Max Sea Level PressureIn, Mean Sea Level PressureIn, Min Sea Level PressureIn, Max VisibilityMiles, Mean VisibilityMiles, Min VisibilityMiles, Max Wind SpeedMPH, Mean Wind SpeedMPH, Max Gust SpeedMPH,PrecipitationIn, CloudCover, Events, WindDirDegrees
2014-5-1,65,58,51,34,29,20,46,35,23,30.18,30.02,29.96,10,10,10,24,11,33,0.00,5,,94
2014-5-2,77,61,45,34,26,18,60,36,11,30.09,30.01,29.92,10,10,10,13,6,19,0.00,0,,194
2014-5-3,86,69,51,23,16,10,28,17,6,30.10,29.94,29.86,10,10,10,15,6,19,0.00,0,,188
2014-5-4,93,74,55,15,11,5,17,11,4,29.93,29.85,29.76,10,10,10,23,8,29,0.00,0,,214
2014-5-5,91,80,68,26,17,11,13,10,6,30.03,29.78,29.66,10,10,10,29,15,34,0.00,1,,252
2014-5-6,88,77,66,29,24,15,20,14,8,29.90,29.63,29.50,10,9,5,40,20,57,0.00,1,,240
2014-5-7,85,75,65,32,22,5,26,17,7,29.77,29.62,29.52,10,8,1,40,18,51,0.00,2,,250
2014-5-8,77,67,57,22,18,14,23,16,9,29.98,29.80,29.69,10,10,10,30,11,38,0.00,1,,293
2014-5-9,84,66,48,26,16,3,35,20,5,29.94,29.83,29.72,10,10,10,24,9,30,0.00,1,,256
2014-5-10,90,75,59,22,17,11,19,12,5,29.97,29.68,29.53,10,10,10,32,15,38,0.00,1,,234
2014-5-11,90,79,67,27,17,9,16,11,6,29.75,29.52,29.41,10,9,5,44,23,63,0.00,0,,246
2014-5-12,79,69,59,24,16,6,20,14,8,29.87,29.78,29.65,10,10,10,25,10,31,0.00,1,,311
2014-5-13,67,58,49,25,24,20,36,28,20,30.30,30.14,29.93,10,10,6,26,12,32,0.00,1,,58
2014-5-14,70,60,49,23,17,10,29,20,10,30.45,30.25,30.13,10,10,10,17,6,22,0.00,0,,66
2014-5-15,81,66,51,16,12,9,19,13,7,30.30,30.11,29.98,10,10,10,13,3,18,0.00,0,,99
2014-5-16,91,71,51,16,13,8,20,13,5,30.08,29.90,29.75,10,10,10,20,6,24,0.00,2,,217
2014-5-17,94,78,61,26,15,10,15,10,5,29.94,29.75,29.67,10,10,8,17,6,21,0.00,3,,246
2014-5-18,96,78,59,21,7,-3,16,10,3,30.00,29.72,29.63,10,10,10,24,11,33,0.00,5,,219
2014-5-19,95,82,69,12,3,-4,9,6,3,29.94,29.72,29.67,10,10,10,35,13,40,0.00,5,,252
2014-5-20,92,78,63,17,8,-4,14,9,4,30.01,29.78,29.72,10,10,10,20,9,25,0.00,5,,234
2014-5-21,94,79,64,26,18,13,16,11,5,30.02,29.77,29.68,10,10,10,24,10,35,0.00,2,,217
2014-5-22,89,78,66,36,30,25,24,18,12,30.05,29.79,29.73,10,10,10,29,9,35,0.00,5,,235
2014-5-23,90,77,64,56,46,30,63,38,13,30.01,29.79,29.63,10,10,7,29,9,39,0.01,3,Rain-Thunderstorm,91
2014-5-24,89,74,59,56,35,13,87,48,8,30.01,29.77,29.64,10,10,10,26,11,33,T,3,,288
2014-5-25,85,73,60,37,29,22,39,26,12,30.03,29.79,29.73,10,10,10,21,9,26,0.00,2,,288
2014-5-26,88,75,61,42,39,36,40,28,16,30.04,29.83,29.78,10,10,10,26,8,31,0.00,3,,7
2014-5-27,95,78,61,39,33,23,39,24,8,29.99,29.85,29.75,10,10,10,16,5,20,0.00,1,,79
2014-5-28,97,83,68,43,38,31,31,21,10,30.09,29.80,29.70,10,10,10,21,8,26,0.00,2,,105
2014-5-29,95,84,72,48,41,36,35,25,14,29.99,29.77,29.70,10,10,10,23,8,30,T,4,Rain,116
2014-5-30,95,83,71,47,43,39,35,25,15,29.99,29.77,29.68,10,10,10,17,7,22,0.00,3,,86
2014-5-31,102,88,73,46,41,33,36,23,10,29.99,29.74,29.64,10,10,10,17,5,22,0.00,1,,174